sensor_id;sensor_type;location;lat;lon;timestamp;pressure;altitude;pressure_sealevel;temperature;humidity
20160;BME280;50187;50.492;12.134;2023-04-16T00:00:43;97271.78;;;19.07;34.55
20160;BME280;50187;50.492;12.134;2023-04-16T00:03:28;97270.91;;;19.06;34.67
20160;BME280;50187;50.492;12.134;2023-04-16T00:06:14;97271.25;;;19.03;34.60
20160;BME280;50187;50.492;12.134;2023-04-16T00:08:59;97271.44;;;19.10;34.66
20160;BME280;50187;50.492;12.134;2023-04-16T00:11:44;97273.97;;;19.11;34.61
20160;BME280;50187;50.492;12.134;2023-04-16T00:14:29;97267.75;;;19.11;34.59
20160;BME280;50187;50.492;12.134;2023-04-16T00:17:14;97270.59;;;19.09;34.62
20160;BME280;50187;50.492;12.134;2023-04-16T00:20:00;97267.88;;;19.09;34.63
20160;BME280;50187;50.492;12.134;2023-04-16T00:22:45;97254.75;;;19.06;34.48
20160;BME280;50187;50.492;12.134;2023-04-16T00:25:30;97266.69;;;19.03;34.69
20160;BME280;50187;50.492;12.134;2023-04-16T00:28:15;97266.38;;;19.07;34.69
20160;BME280;50187;50.492;12.134;2023-04-16T00:31:00;97266.38;;;19.07;34.67
20160;BME280;50187;50.492;12.134;2023-04-16T00:33:46;97267.75;;;19.11;34.69
20160;BME280;50187;50.492;12.134;2023-04-16T00:36:31;97264.19;;;19.10;34.62
20160;BME280;50187;50.492;12.134;2023-04-16T00:39:17;97264.19;;;19.10;34.38
20160;BME280;50187;50.492;12.134;2023-04-16T00:42:02;97266.06;;;19.10;34.46
20160;BME280;50187;50.492;12.134;2023-04-16T00:44:47;97278.66;;;19.09;34.39
20160;BME280;50187;50.492;12.134;2023-04-16T00:47:32;97274.31;;;19.08;34.46
20160;BME280;50187;50.492;12.134;2023-04-16T00:50:18;97275.63;;;19.04;34.49
20160;BME280;50187;50.492;12.134;2023-04-16T00:53:04;97280.03;;;19.05;34.61
20160;BME280;50187;50.492;12.134;2023-04-16T00:55:49;97282.03;;;19.03;34.74
20160;BME280;50187;50.492;12.134;2023-04-16T00:58:35;97272.44;;;19.09;34.48
20160;BME280;50187;50.492;12.134;2023-04-16T01:01:20;97281.38;;;19.09;34.52
20160;BME280;50187;50.492;12.134;2023-04-16T01:04:05;97283.06;;;19.10;34.53
20160;BME280;50187;50.492;12.134;2023-04-16T01:06:51;97285.09;;;19.08;34.60
20160;BME280;50187;50.492;12.134;2023-04-16T01:09:36;97279.69;;;19.08;34.38
20160;BME280;50187;50.492;12.134;2023-04-16T01:12:22;97281.19;;;19.02;34.73
20160;BME280;50187;50.492;12.134;2023-04-16T01:15:10;97278.34;;;19.04;34.69
20160;BME280;50187;50.492;12.134;2023-04-16T01:17:55;97285.09;;;19.08;34.46
20160;BME280;50187;50.492;12.134;2023-04-16T01:20:41;97282.22;;;19.10;34.60
20160;BME280;50187;50.492;12.134;2023-04-16T01:23:27;97284.75;;;19.11;34.53
20160;BME280;50187;50.492;12.134;2023-04-16T01:26:12;97271.25;;;19.03;34.54
20160;BME280;50187;50.492;12.134;2023-04-16T01:28:58;97304.63;;;19.10;34.56
20160;BME280;50187;50.492;12.134;2023-04-16T01:31:44;97280.53;;;19.09;34.56
20160;BME280;50187;50.492;12.134;2023-04-16T01:34:38;97287.09;;;19.06;34.58
20160;BME280;50187;50.492;12.134;2023-04-16T01:37:24;97283.72;;;19.04;34.57
20160;BME280;50187;50.492;12.134;2023-04-16T01:40:09;97281.53;;;19.08;34.77
20160;BME280;50187;50.492;12.134;2023-04-16T01:42:55;97294.72;;;19.11;34.56
20160;BME280;50187;50.492;12.134;2023-04-16T01:45:41;97289.44;;;19.09;34.52
20160;BME280;50187;50.492;12.134;2023-04-16T01:48:29;97290.16;;;19.11;34.37
20160;BME280;50187;50.492;12.134;2023-04-16T01:51:14;97291.31;;;19.09;34.38
20160;BME280;50187;50.492;12.134;2023-04-16T01:53:59;97304.78;;;19.09;34.48
20160;BME280;50187;50.492;12.134;2023-04-16T01:56:45;97296.19;;;19.05;34.67
20160;BME280;50187;50.492;12.134;2023-04-16T01:59:30;97296.50;;;19.02;34.50
20160;BME280;50187;50.492;12.134;2023-04-16T02:02:16;97287.41;;;19.03;34.70
20160;BME280;50187;50.492;12.134;2023-04-16T02:05:02;97288.78;;;19.07;34.58
20160;BME280;50187;50.492;12.134;2023-04-16T02:07:47;97292.16;;;19.09;34.55
20160;BME280;50187;50.492;12.134;2023-04-16T02:10:33;97294.00;;;19.09;34.46
20160;BME280;50187;50.492;12.134;2023-04-16T02:13:19;97294.00;;;19.09;34.52
20160;BME280;50187;50.492;12.134;2023-04-16T02:16:05;97301.25;;;19.08;34.60
20160;BME280;50187;50.492;12.134;2023-04-16T02:19:07;97298.72;;;19.07;34.39
20160;BME280;50187;50.492;12.134;2023-04-16T02:21:53;97307.44;;;19.00;34.42
20160;BME280;50187;50.492;12.134;2023-04-16T02:24:39;97301.91;;;19.02;34.76
20160;BME280;50187;50.492;12.134;2023-04-16T02:27:26;97298.91;;;19.05;34.37
20160;BME280;50187;50.492;12.134;2023-04-16T02:30:19;97303.97;;;19.08;34.46
20160;BME280;50187;50.492;12.134;2023-04-16T02:33:04;97301.09;;;19.10;34.65
20160;BME280;50187;50.492;12.134;2023-04-16T02:35:52;97301.25;;;19.08;34.42
20160;BME280;50187;50.492;12.134;2023-04-16T02:38:37;97294.19;;;19.07;34.67
20160;BME280;50187;50.492;12.134;2023-04-16T02:41:23;97303.25;;;19.06;34.44
20160;BME280;50187;50.492;12.134;2023-04-16T02:44:08;97306.44;;;19.01;34.59
20160;BME280;50187;50.492;12.134;2023-04-16T02:46:53;97314.53;;;19.01;34.75
20160;BME280;50187;50.492;12.134;2023-04-16T02:49:38;97311.50;;;19.04;34.61
20160;BME280;50187;50.492;12.134;2023-04-16T02:52:23;97315.06;;;19.05;34.59
20160;BME280;50187;50.492;12.134;2023-04-16T02:55:09;97314.03;;;19.06;34.57
20160;BME280;50187;50.492;12.134;2023-04-16T02:57:54;97309.53;;;19.07;34.51
20160;BME280;50187;50.492;12.134;2023-04-16T03:00:39;97310.34;;;19.07;34.67
20160;BME280;50187;50.492;12.134;2023-04-16T03:03:24;97317.59;;;19.07;34.45
20160;BME280;50187;50.492;12.134;2023-04-16T03:06:10;97315.38;;;19.02;34.68
20160;BME280;50187;50.492;12.134;2023-04-16T03:08:55;97320.75;;;19.02;34.53
20160;BME280;50187;50.492;12.134;2023-04-16T03:11:40;97318.94;;;19.02;34.57
20160;BME280;50187;50.492;12.134;2023-04-16T03:14:25;97325.69;;;19.07;34.56
20160;BME280;50187;50.492;12.134;2023-04-16T03:17:10;97326.53;;;19.07;34.48
20160;BME280;50187;50.492;12.134;2023-04-16T03:19:56;97324.81;;;19.06;34.57
20160;BME280;50187;50.492;12.134;2023-04-16T03:22:41;97321.63;;;19.02;34.50
20160;BME280;50187;50.492;12.134;2023-04-16T03:25:26;97333.78;;;19.07;34.48
20160;BME280;50187;50.492;12.134;2023-04-16T03:28:11;97337.81;;;19.02;34.68
20160;BME280;50187;50.492;12.134;2023-04-16T03:30:56;97340.50;;;19.02;34.70
20160;BME280;50187;50.492;12.134;2023-04-16T03:33:41;97341.00;;;19.06;34.45
20160;BME280;50187;50.492;12.134;2023-04-16T03:36:26;97349.94;;;19.07;34.56
20160;BME280;50187;50.492;12.134;2023-04-16T03:39:11;97345.72;;;19.04;34.32
20160;BME280;50187;50.492;12.134;2023-04-16T03:41:57;97351.63;;;19.08;34.61
20160;BME280;50187;50.492;12.134;2023-04-16T03:44:42;97358.03;;;19.07;34.48
20160;BME280;50187;50.492;12.134;2023-04-16T03:47:28;97351.78;;;19.06;34.56
20160;BME280;50187;50.492;12.134;2023-04-16T03:50:18;97354.97;;;19.01;34.51
20160;BME280;50187;50.492;12.134;2023-04-16T03:53:04;97356.66;;;19.02;34.66
20160;BME280;50187;50.492;12.134;2023-04-16T03:55:51;97361.91;;;19.04;34.46
20160;BME280;50187;50.492;12.134;2023-04-16T03:58:37;97365.97;;;19.08;34.52
20160;BME280;50187;50.492;12.134;2023-04-16T04:01:23;97360.72;;;19.07;34.56
20160;BME280;50187;50.492;12.134;2023-04-16T04:04:09;97369.66;;;19.07;34.63
20160;BME280;50187;50.492;12.134;2023-04-16T04:06:55;97372.19;;;19.09;34.56
20160;BME280;50187;50.492;12.134;2023-04-16T04:09:42;97364.25;;;19.07;34.56
20160;BME280;50187;50.492;12.134;2023-04-16T04:12:27;97370.66;;;19.06;34.50
20160;BME280;50187;50.492;12.134;2023-04-16T04:15:13;97374.84;;;19.00;34.63
20160;BME280;50187;50.492;12.134;2023-04-16T04:17:59;97377.06;;;19.05;34.58
20160;BME280;50187;50.492;12.134;2023-04-16T04:20:45;97389.53;;;19.06;34.58
20160;BME280;50187;50.492;12.134;2023-04-16T04:23:34;97391.72;;;19.02;34.45
20160;BME280;50187;50.492;12.134;2023-04-16T04:26:19;97389.53;;;19.06;34.32
20160;BME280;50187;50.492;12.134;2023-04-16T04:29:05;97390.22;;;19.08;34.61
20160;BME280;50187;50.492;12.134;2023-04-16T04:31:50;97396.63;;;19.07;34.48
20160;BME280;50187;50.492;12.134;2023-04-16T04:34:36;97385.78;;;18.99;34.58
20160;BME280;50187;50.492;12.134;2023-04-16T04:37:23;97396.94;;;19.04;34.58
20160;BME280;50187;50.492;12.134;2023-04-16T04:40:08;97402.00;;;19.07;34.35
20160;BME280;50187;50.492;12.134;2023-04-16T04:42:53;97402.00;;;19.07;34.45
20160;BME280;50187;50.492;12.134;2023-04-16T04:45:40;97400.31;;;19.06;34.45
20160;BME280;50187;50.492;12.134;2023-04-16T04:48:26;97400.84;;;19.10;34.43
20160;BME280;50187;50.492;12.134;2023-04-16T04:51:12;97402.53;;;19.11;34.47
20160;BME280;50187;50.492;12.134;2023-04-16T04:53:58;97407.72;;;19.04;34.34
20160;BME280;50187;50.492;12.134;2023-04-16T04:56:44;97410.59;;;19.02;34.54
20160;BME280;50187;50.492;12.134;2023-04-16T04:59:31;97412.78;;;19.07;34.64
20160;BME280;50187;50.492;12.134;2023-04-16T05:02:17;97411.13;;;19.14;34.62
20160;BME280;50187;50.492;12.134;2023-04-16T05:05:03;97410.97;;;19.16;34.28
20160;BME280;50187;50.492;12.134;2023-04-16T05:07:48;97420.81;;;19.25;34.16
20160;BME280;50187;50.492;12.134;2023-04-16T05:10:34;97420.00;;;19.33;34.04
20160;BME280;50187;50.492;12.134;2023-04-16T05:13:19;97427.13;;;19.42;34.23
20160;BME280;50187;50.492;12.134;2023-04-16T05:16:04;97425.09;;;19.44;33.95
20160;BME280;50187;50.492;12.134;2023-04-16T05:18:50;97435.44;;;19.49;33.86
20160;BME280;50187;50.492;12.134;2023-04-16T05:21:35;97428.00;;;19.51;33.98
20160;BME280;50187;50.492;12.134;2023-04-16T05:24:21;97428.88;;;19.60;33.91
20160;BME280;50187;50.492;12.134;2023-04-16T05:27:06;97434.66;;;19.65;34.07
20160;BME280;50187;50.492;12.134;2023-04-16T05:29:51;97439.56;;;19.69;33.81
20160;BME280;50187;50.492;12.134;2023-04-16T05:32:38;97435.69;;;19.72;33.83
20160;BME280;50187;50.492;12.134;2023-04-16T05:35:23;97445.81;;;19.70;33.92
20160;BME280;50187;50.492;12.134;2023-04-16T05:38:08;97454.25;;;19.75;33.83
20160;BME280;50187;50.492;12.134;2023-04-16T05:40:54;97456.63;;;19.78;33.89
20160;BME280;50187;50.492;12.134;2023-04-16T05:43:39;97447.56;;;19.79;33.80
20160;BME280;50187;50.492;12.134;2023-04-16T05:46:24;97453.66;;;19.81;33.75
20160;BME280;50187;50.492;12.134;2023-04-16T05:49:10;97452.63;;;19.82;33.62
20160;BME280;50187;50.492;12.134;2023-04-16T05:51:56;97456.47;;;19.80;33.53
20160;BME280;50187;50.492;12.134;2023-04-16T05:54:41;97466.44;;;19.79;33.70
20160;BME280;50187;50.492;12.134;2023-04-16T05:57:27;97463.41;;;19.82;33.56
20160;BME280;50187;50.492;12.134;2023-04-16T06:00:12;97462.78;;;19.88;33.64
20160;BME280;50187;50.492;12.134;2023-04-16T06:02:58;97470.88;;;19.88;33.64
20160;BME280;50187;50.492;12.134;2023-04-16T06:05:43;97476.28;;;19.88;33.71
20160;BME280;50187;50.492;12.134;2023-04-16T06:08:29;97476.56;;;19.85;33.70
20160;BME280;50187;50.492;12.134;2023-04-16T06:11:14;97476.75;;;19.84;33.61
20160;BME280;50187;50.492;12.134;2023-04-16T06:13:59;97474.56;;;19.87;33.44
20160;BME280;50187;50.492;12.134;2023-04-16T06:16:44;97478.09;;;19.88;33.54
20160;BME280;50187;50.492;12.134;2023-04-16T06:19:29;97484.38;;;19.88;33.46
20160;BME280;50187;50.492;12.134;2023-04-16T06:22:15;97484.22;;;19.90;33.36
20160;BME280;50187;50.492;12.134;2023-04-16T06:25:00;97488.25;;;19.86;33.62
20160;BME280;50187;50.492;12.134;2023-04-16T06:27:45;97488.41;;;19.84;33.73
20160;BME280;50187;50.492;12.134;2023-04-16T06:30:30;97489.78;;;19.88;33.66
20160;BME280;50187;50.492;12.134;2023-04-16T06:33:16;97485.88;;;19.91;33.54
20160;BME280;50187;50.492;12.134;2023-04-16T06:36:01;97493.97;;;19.91;33.37
20160;BME280;50187;50.492;12.134;2023-04-16T06:38:46;97498.53;;;19.90;33.66
20160;BME280;50187;50.492;12.134;2023-04-16T06:41:31;97498.88;;;19.87;33.38
20160;BME280;50187;50.492;12.134;2023-04-16T06:44:16;97501.91;;;19.84;33.59
20160;BME280;50187;50.492;12.134;2023-04-16T06:47:01;97502.25;;;19.89;33.74
20160;BME280;50187;50.492;12.134;2023-04-16T06:49:46;97500.41;;;19.90;33.67
20160;BME280;50187;50.492;12.134;2023-04-16T06:52:32;97503.94;;;19.90;33.44
20160;BME280;50187;50.492;12.134;2023-04-16T06:55:17;97497.88;;;19.88;33.49
20160;BME280;50187;50.492;12.134;2023-04-16T06:58:02;97504.09;;;19.89;33.34
20160;BME280;50187;50.492;12.134;2023-04-16T07:00:47;97509.84;;;19.86;33.40
20160;BME280;50187;50.492;12.134;2023-04-16T07:03:33;97517.59;;;19.89;33.48
20160;BME280;50187;50.492;12.134;2023-04-16T07:06:18;97509.34;;;19.90;33.71
20160;BME280;50187;50.492;12.134;2023-04-16T07:09:03;97511.03;;;19.92;33.58
20160;BME280;50187;50.492;12.134;2023-04-16T07:11:48;97513.75;;;19.92;33.65
20160;BME280;50187;50.492;12.134;2023-04-16T07:14:33;97517.44;;;19.90;33.58
20160;BME280;50187;50.492;12.134;2023-04-16T07:17:18;97515.91;;;19.88;33.73
20160;BME280;50187;50.492;12.134;2023-04-16T07:20:04;97521.13;;;19.89;33.49
20160;BME280;50187;50.492;12.134;2023-04-16T07:22:49;97524.22;;;19.95;33.65
20160;BME280;50187;50.492;12.134;2023-04-16T07:25:34;97526.75;;;19.96;33.55
20160;BME280;50187;50.492;12.134;2023-04-16T07:28:19;97530.44;;;19.95;33.39
20160;BME280;50187;50.492;12.134;2023-04-16T07:31:04;97534.00;;;19.96;33.29
20160;BME280;50187;50.492;12.134;2023-04-16T07:33:50;97534.63;;;19.89;33.69
20160;BME280;50187;50.492;12.134;2023-04-16T07:36:35;97542.72;;;19.89;33.57
20160;BME280;50187;50.492;12.134;2023-04-16T07:39:21;97544.44;;;19.90;33.50
20160;BME280;50187;50.492;12.134;2023-04-16T07:42:05;97545.97;;;19.93;33.50
20160;BME280;50187;50.492;12.134;2023-04-16T07:44:51;97546.81;;;19.94;33.67
20160;BME280;50187;50.492;12.134;2023-04-16T07:47:35;97557.59;;;19.94;33.62
20160;BME280;50187;50.492;12.134;2023-04-16T07:50:21;97553.53;;;19.89;33.72
20160;BME280;50187;50.492;12.134;2023-04-16T07:53:06;97555.56;;;19.87;33.71
20160;BME280;50187;50.492;12.134;2023-04-16T07:55:52;97555.56;;;19.87;33.81
20160;BME280;50187;50.492;12.134;2023-04-16T07:58:37;97561.47;;;19.91;33.54
20160;BME280;50187;50.492;12.134;2023-04-16T08:01:22;97557.94;;;19.90;33.50
20160;BME280;50187;50.492;12.134;2023-04-16T08:04:07;97564.03;;;19.93;33.60
20160;BME280;50187;50.492;12.134;2023-04-16T08:06:53;97559.78;;;19.90;33.46
20160;BME280;50187;50.492;12.134;2023-04-16T08:09:46;97559.25;;;19.86;33.57
20160;BME280;50187;50.492;12.134;2023-04-16T08:12:32;97566.34;;;19.87;33.68
20160;BME280;50187;50.492;12.134;2023-04-16T08:15:18;97562.50;;;19.90;33.71
20160;BME280;50187;50.492;12.134;2023-04-16T08:18:03;97563.31;;;19.90;33.54
20160;BME280;50187;50.492;12.134;2023-04-16T08:20:51;97574.13;;;19.90;33.47
20160;BME280;50187;50.492;12.134;2023-04-16T08:23:36;97571.75;;;19.87;33.71
20160;BME280;50187;50.492;12.134;2023-04-16T08:26:20;97572.91;;;19.85;33.52
20160;BME280;50187;50.492;12.134;2023-04-16T08:29:06;97579.47;;;19.82;33.66
20160;BME280;50187;50.492;12.134;2023-04-16T08:31:52;97595.50;;;19.84;33.62
20160;BME280;50187;50.492;12.134;2023-04-16T08:34:38;97587.25;;;19.85;33.71
20160;BME280;50187;50.492;12.134;2023-04-16T08:37:24;97591.66;;;19.86;33.70
20160;BME280;50187;50.492;12.134;2023-04-16T08:40:10;97590.97;;;19.84;33.73
20160;BME280;50187;50.492;12.134;2023-04-16T08:42:58;97597.38;;;19.83;33.43
20160;BME280;50187;50.492;12.134;2023-04-16T08:45:46;97596.69;;;19.81;33.82
20160;BME280;50187;50.492;12.134;2023-04-16T08:48:32;97595.84;;;19.81;33.67
20160;BME280;50187;50.492;12.134;2023-04-16T08:51:19;97597.38;;;19.83;33.83
20160;BME280;50187;50.492;12.134;2023-04-16T08:54:11;97599.91;;;19.85;33.56
20160;BME280;50187;50.492;12.134;2023-04-16T08:56:59;97597.03;;;19.86;33.61
20160;BME280;50187;50.492;12.134;2023-04-16T08:59:45;97606.16;;;19.85;33.53
20160;BME280;50187;50.492;12.134;2023-04-16T09:02:31;97611.03;;;19.82;33.65
20160;BME280;50187;50.492;12.134;2023-04-16T09:05:19;97608.50;;;19.80;33.67
20160;BME280;50187;50.492;12.134;2023-04-16T09:08:07;97612.72;;;19.83;33.79
20160;BME280;50187;50.492;12.134;2023-04-16T09:10:54;97623.38;;;19.84;33.68
20160;BME280;50187;50.492;12.134;2023-04-16T09:13:39;97616.09;;;19.85;33.49
20160;BME280;50187;50.492;12.134;2023-04-16T09:16:25;97626.06;;;19.84;33.72
20160;BME280;50187;50.492;12.134;2023-04-16T09:19:12;97623.53;;;19.83;33.71
20160;BME280;50187;50.492;12.134;2023-04-16T09:21:58;97622.81;;;19.81;33.80
20160;BME280;50187;50.492;12.134;2023-04-16T09:24:43;97624.38;;;19.83;33.72
20160;BME280;50187;50.492;12.134;2023-04-16T09:27:29;97632.31;;;19.85;33.52
20160;BME280;50187;50.492;12.134;2023-04-16T09:30:25;97624.19;;;19.85;33.60
20160;BME280;50187;50.492;12.134;2023-04-16T09:33:16;97642.94;;;19.86;33.70
20160;BME280;50187;50.492;12.134;2023-04-16T09:36:06;97635.16;;;19.83;33.67
20160;BME280;50187;50.492;12.134;2023-04-16T09:38:54;97644.25;;;19.82;33.55
20160;BME280;50187;50.492;12.134;2023-04-16T09:41:41;97635.47;;;19.80;33.72
20160;BME280;50187;50.492;12.134;2023-04-16T09:44:37;97638.84;;;19.82;33.67
20160;BME280;50187;50.492;12.134;2023-04-16T09:47:24;97635.00;;;19.85;33.52
20160;BME280;50187;50.492;12.134;2023-04-16T09:50:14;97637.88;;;19.83;33.75
20160;BME280;50187;50.492;12.134;2023-04-16T09:53:02;97642.44;;;19.83;33.56
20160;BME280;50187;50.492;12.134;2023-04-16T09:55:48;97638.03;;;19.82;33.67
20160;BME280;50187;50.492;12.134;2023-04-16T09:58:35;97658.06;;;19.79;33.63
20160;BME280;50187;50.492;12.134;2023-04-16T10:01:20;97657.06;;;19.80;33.64
20160;BME280;50187;50.492;12.134;2023-04-16T10:04:06;97654.38;;;19.80;33.67
20160;BME280;50187;50.492;12.134;2023-04-16T10:07:03;97666.72;;;19.83;33.80
20160;BME280;50187;50.492;12.134;2023-04-16T10:09:49;97663.31;;;19.81;33.53
20160;BME280;50187;50.492;12.134;2023-04-16T10:12:34;97669.00;;;19.78;33.59
20160;BME280;50187;50.492;12.134;2023-04-16T10:15:20;97672.53;;;19.78;33.81
20160;BME280;50187;50.492;12.134;2023-04-16T10:18:06;97677.56;;;19.73;33.83
20160;BME280;50187;50.492;12.134;2023-04-16T10:20:51;97671.47;;;19.71;33.85
20160;BME280;50187;50.492;12.134;2023-04-16T10:23:40;97681.81;;;19.76;33.60
20160;BME280;50187;50.492;12.134;2023-04-16T10:26:26;97675.22;;;19.78;33.70
20160;BME280;50187;50.492;12.134;2023-04-16T10:29:13;97675.22;;;19.78;33.57
20160;BME280;50187;50.492;12.134;2023-04-16T10:31:59;97677.25;;;19.76;33.90
20160;BME280;50187;50.492;12.134;2023-04-16T10:34:46;97674.88;;;19.73;33.80
20160;BME280;50187;50.492;12.134;2023-04-16T10:37:32;97676.19;;;19.69;34.00
20160;BME280;50187;50.492;12.134;2023-04-16T10:40:24;97672.78;;;19.67;33.67
20160;BME280;50187;50.492;12.134;2023-04-16T10:43:16;97679.66;;;19.79;33.73
20160;BME280;50187;50.492;12.134;2023-04-16T10:52:10;97684.34;;;19.77;33.57
20160;BME280;50187;50.492;12.134;2023-04-16T10:54:57;97685.50;;;19.74;33.64
20160;BME280;50187;50.492;12.134;2023-04-16T10:57:48;97680.94;;;19.75;33.67
20160;BME280;50187;50.492;12.134;2023-04-16T11:00:48;97685.06;;;19.79;33.54
20160;BME280;50187;50.492;12.134;2023-04-16T11:03:33;97681.66;;;19.77;33.65
20160;BME280;50187;50.492;12.134;2023-04-16T11:06:25;97697.84;;;19.77;33.68
20160;BME280;50187;50.492;12.134;2023-04-16T11:12:55;97708.81;;;19.76;33.82
20160;BME280;50187;50.492;12.134;2023-04-16T11:15:40;97689.75;;;19.77;33.72
20160;BME280;50187;50.492;12.134;2023-04-16T11:18:26;97692.63;;;19.76;33.76
20160;BME280;50187;50.492;12.134;2023-04-16T11:21:11;97700.56;;;19.77;33.65
20160;BME280;50187;50.492;12.134;2023-04-16T11:23:57;97703.97;;;19.79;33.63
20160;BME280;50187;50.492;12.134;2023-04-16T11:26:42;97703.41;;;19.76;33.63
20160;BME280;50187;50.492;12.134;2023-04-16T11:29:27;97703.25;;;19.77;33.74
20160;BME280;50187;50.492;12.134;2023-04-16T11:32:19;97702.69;;;19.73;33.66
20160;BME280;50187;50.492;12.134;2023-04-16T11:35:16;97703.97;;;19.79;33.53
20160;BME280;50187;50.492;12.134;2023-04-16T11:38:01;97706.78;;;19.78;33.62
20160;BME280;50187;50.492;12.134;2023-04-16T11:40:48;97714.75;;;19.79;33.63
20160;BME280;50187;50.492;12.134;2023-04-16T11:43:33;97724.56;;;19.80;33.82
20160;BME280;50187;50.492;12.134;2023-04-16T11:46:19;97719.59;;;19.76;34.29
20160;BME280;50187;50.492;12.134;2023-04-16T11:49:12;97719.06;;;19.72;34.27
20160;BME280;50187;50.492;12.134;2023-04-16T11:51:59;97723.47;;;19.73;34.11
20160;BME280;50187;50.492;12.134;2023-04-16T11:54:49;97735.81;;;19.76;34.12
20160;BME280;50187;50.492;12.134;2023-04-16T11:57:33;97725.00;;;19.76;34.34
20160;BME280;50187;50.492;12.134;2023-04-16T12:00:18;97724.56;;;19.80;34.03
20160;BME280;50187;50.492;12.134;2023-04-16T12:03:08;97727.78;;;19.84;34.13
20160;BME280;50187;50.492;12.134;2023-04-16T12:05:54;97719.44;;;19.77;34.10
20160;BME280;50187;50.492;12.134;2023-04-16T12:08:41;97726.84;;;19.75;34.30
20160;BME280;50187;50.492;12.134;2023-04-16T12:11:41;97724.69;;;19.79;34.16
20160;BME280;50187;50.492;12.134;2023-04-16T12:14:27;97723.69;;;19.80;34.00
20160;BME280;50187;50.492;12.134;2023-04-16T12:17:19;97709.81;;;19.74;34.00
20160;BME280;50187;50.492;12.134;2023-04-16T12:20:12;97727.69;;;19.76;34.20
20160;BME280;50187;50.492;12.134;2023-04-16T12:22:58;97731.91;;;19.78;34.05
20160;BME280;50187;50.492;12.134;2023-04-16T12:25:45;97726.50;;;19.78;34.00
20160;BME280;50187;50.492;12.134;2023-04-16T12:28:34;97733.94;;;19.76;34.22
20160;BME280;50187;50.492;12.134;2023-04-16T12:31:36;97734.34;;;19.81;34.11
20160;BME280;50187;50.492;12.134;2023-04-16T12:34:22;97734.72;;;19.86;34.02
20160;BME280;50187;50.492;12.134;2023-04-16T12:37:27;97733.56;;;19.89;34.11
20160;BME280;50187;50.492;12.134;2023-04-16T12:40:12;97733.00;;;19.85;34.23
20160;BME280;50187;50.492;12.134;2023-04-16T12:42:57;97737.56;;;19.85;34.45
20160;BME280;50187;50.492;12.134;2023-04-16T12:45:42;97735.72;;;19.85;34.23
20160;BME280;50187;50.492;12.134;2023-04-16T12:48:27;97739.75;;;19.81;34.37
20160;BME280;50187;50.492;12.134;2023-04-16T12:51:12;97743.13;;;19.83;34.62
20160;BME280;50187;50.492;12.134;2023-04-16T12:53:59;97739.13;;;19.87;34.32
20160;BME280;50187;50.492;12.134;2023-04-16T12:56:44;97739.97;;;19.88;34.45
20160;BME280;50187;50.492;12.134;2023-04-16T12:59:30;97739.97;;;19.88;34.16
20160;BME280;50187;50.492;12.134;2023-04-16T13:02:15;97739.44;;;19.84;34.30
20160;BME280;50187;50.492;12.134;2023-04-16T13:05:01;97737.91;;;19.82;34.14
20160;BME280;50187;50.492;12.134;2023-04-16T13:07:47;97739.19;;;19.78;34.52
20160;BME280;50187;50.492;12.134;2023-04-16T13:10:32;97738.34;;;19.77;34.29
20160;BME280;50187;50.492;12.134;2023-04-16T13:13:17;97740.75;;;19.80;34.33
20160;BME280;50187;50.492;12.134;2023-04-16T13:16:02;97731.25;;;19.76;34.09
20160;BME280;50187;50.492;12.134;2023-04-16T13:18:52;97747.69;;;19.83;34.32
20160;BME280;50187;50.492;12.134;2023-04-16T13:21:37;97744.84;;;19.84;34.06
20160;BME280;50187;50.492;12.134;2023-04-16T13:24:23;97741.75;;;19.79;34.27
20160;BME280;50187;50.492;12.134;2023-04-16T13:27:08;97748.44;;;19.75;34.32
20160;BME280;50187;50.492;12.134;2023-04-16T13:29:53;97750.81;;;19.78;34.34
20160;BME280;50187;50.492;12.134;2023-04-16T13:32:38;97756.94;;;19.80;34.22
20160;BME280;50187;50.492;12.134;2023-04-16T13:35:25;97747.69;;;19.83;34.25
20160;BME280;50187;50.492;12.134;2023-04-16T13:38:11;97740.88;;;19.79;34.11
20160;BME280;50187;50.492;12.134;2023-04-16T13:40:56;97757.63;;;19.82;34.19
20160;BME280;50187;50.492;12.134;2023-04-16T13:43:41;97750.13;;;19.76;34.23
20160;BME280;50187;50.492;12.134;2023-04-16T13:46:25;97756.00;;;19.71;34.26
20160;BME280;50187;50.492;12.134;2023-04-16T13:49:11;97770.19;;;19.73;34.25
20160;BME280;50187;50.492;12.134;2023-04-16T13:51:56;97759.94;;;19.77;34.17
20160;BME280;50187;50.492;12.134;2023-04-16T13:54:41;97761.59;;;19.78;34.37
20160;BME280;50187;50.492;12.134;2023-04-16T13:57:36;97767.16;;;19.77;34.35
20160;BME280;50187;50.492;12.134;2023-04-16T14:00:21;97766.31;;;19.76;34.15
20160;BME280;50187;50.492;12.134;2023-04-16T14:03:06;97764.25;;;19.70;34.32
20160;BME280;50187;50.492;12.134;2023-04-16T14:05:52;97763.53;;;19.68;34.45
20160;BME280;50187;50.492;12.134;2023-04-16T14:08:37;97765.78;;;19.72;34.34
20160;BME280;50187;50.492;12.134;2023-04-16T14:11:22;97771.88;;;19.74;34.09
20160;BME280;50187;50.492;12.134;2023-04-16T14:14:08;97761.69;;;19.68;34.25
20160;BME280;50187;50.492;12.134;2023-04-16T14:16:53;97774.75;;;19.73;34.08
20160;BME280;50187;50.492;12.134;2023-04-16T14:19:38;97771.16;;;19.72;34.16
20160;BME280;50187;50.492;12.134;2023-04-16T14:22:23;97778.75;;;19.69;34.19
20160;BME280;50187;50.492;12.134;2023-04-16T14:25:08;97770.81;;;19.67;34.30
20160;BME280;50187;50.492;12.134;2023-04-16T14:27:53;97770.50;;;19.70;34.20
20160;BME280;50187;50.492;12.134;2023-04-16T14:30:39;97771.16;;;19.72;34.13
20160;BME280;50187;50.492;12.134;2023-04-16T14:33:24;97774.75;;;19.73;34.21
20160;BME280;50187;50.492;12.134;2023-04-16T14:36:10;97775.34;;;19.67;34.21
20160;BME280;50187;50.492;12.134;2023-04-16T14:38:55;97775.06;;;19.70;34.30